Time;durP1;ratioP1;P1;durP2;ratioP2;P2;SDS_P1;SDS_P2;PMS_P1;PMS_P2;Temp;Humidity;BMP_temperature;BMP_pressure;BME280_temperature;BME280_humidity;BME280_pressure;Samples;Min_cycle;Max_cycle;Signal;HPM_P1;HPM_P2
2021/06/05 00:00:35;;;;;;;;;;;24.10;49.50;;;;;;1543815;75;1929;-74
2021/06/05 00:02:37;;;;;;;;;;;24.20;49.40;;;;;;1543297;75;788;-69
2021/06/05 00:04:39;;;;;;;;;;;24.20;49.60;;;;;;1545873;75;756;-69
2021/06/05 00:06:41;;;;;;;;;;;24.10;49.70;;;;;;1543928;75;745;-70
2021/06/05 00:08:43;;;;;;;;;;;24.20;49.40;;;;;;1546041;75;760;-72
2021/06/05 00:10:46;;;;;;;;;;;24.10;49.60;;;;;;1536846;75;1143;-65
2021/06/05 00:12:48;;;;;;;;;;;24.20;49.60;;;;;;1538140;75;778;-68
2021/06/05 00:14:50;;;;;;;;;;;24.20;49.40;;;;;;1544762;75;647;-70
2021/06/05 00:16:52;;;;;;;;;;;24.20;48.90;;;;;;1534861;75;691;-67
2021/06/05 00:18:54;;;;;;;;;;;24.20;49.10;;;;;;1537309;75;1941;-68
2021/06/05 00:20:56;;;;;;;;;;;24.20;48.90;;;;;;1538248;75;1147;-67
2021/06/05 00:23:01;;;;;;;;;;;24.20;48.90;;;;;;1537949;75;808;-69
2021/06/05 00:25:04;;;;;;;;;;;24.20;48.90;;;;;;1529841;75;767;-67
2021/06/05 00:27:06;;;;;;;;;;;24.20;48.60;;;;;;1545276;75;699;-70
2021/06/05 00:29:08;;;;;;;;;;;24.20;48.60;;;;;;1532706;75;740;-70
2021/06/05 00:31:10;;;;;;;;;;;24.20;48.80;;;;;;1529178;75;1155;-68
2021/06/05 00:33:12;;;;;;;;;;;24.20;48.70;;;;;;1535764;75;820;-67
2021/06/05 00:35:14;;;;;;;;;;;24.10;48.50;;;;;;1532452;75;807;-68
2021/06/05 00:37:16;;;;;;;;;;;24.20;48.70;;;;;;1533423;75;718;-70
2021/06/05 00:39:17;;;;;;;;;;;24.20;48.20;;;;;;1539852;75;1941;-68
2021/06/05 00:41:19;;;;;;;;;;;24.20;48.30;;;;;;1545812;75;1162;-67
2021/06/05 00:43:23;;;;;;;;;;;24.20;48.30;;;;;;1538141;75;695;-68
2021/06/05 00:45:26;;;;;;;;;;;24.20;48.80;;;;;;1529051;75;775;-70
2021/06/05 00:47:28;;;;;;;;;;;24.20;48.60;;;;;;1539368;75;875;-68
2021/06/05 00:49:29;;;;;;;;;;;24.20;48.70;;;;;;1534381;75;769;-68
2021/06/05 00:51:33;;;;;;;;;;;24.20;48.50;;;;;;1544019;75;1157;-70
2021/06/05 00:53:35;;;;;;;;;;;24.20;48.60;;;;;;1539939;75;2230;-67
2021/06/05 00:55:38;;;;;;;;;;;24.20;48.40;;;;;;1538039;75;794;-67
2021/06/05 00:57:40;;;;;;;;;;;24.20;48.40;;;;;;1538251;75;765;-67
2021/06/05 00:59:42;;;;;;;;;;;24.20;48.60;;;;;;1543616;75;1929;-68
2021/06/05 01:01:44;;;;;;;;;;;24.10;48.50;;;;;;1538473;75;1162;-70
2021/06/05 01:03:46;;;;;;;;;;;24.20;48.80;;;;;;1526830;75;765;-68
2021/06/05 01:05:48;;;;;;;;;;;24.20;48.80;;;;;;1528656;75;798;-68
2021/06/05 01:07:50;;;;;;;;;;;24.20;48.80;;;;;;1530467;75;702;-68
2021/06/05 01:10:03;;;;;;;;;;;24.20;48.60;;;;;;1538408;75;1177;-67
2021/06/05 01:12:06;;;;;;;;;;;24.20;48.60;;;;;;1547278;75;1257;-71
2021/06/05 01:14:13;;;;;;;;;;;24.10;48.70;;;;;;1545257;75;718;-68
2021/06/05 01:16:16;;;;;;;;;;;24.20;48.30;;;;;;1537958;75;1826;-66
2021/06/05 01:18:37;;;;;;;;;;;24.20;48.60;;;;;;1545294;75;723;-68
2021/06/05 01:20:43;;;;;;;;;;;24.10;48.40;;;;;;1532718;75;1915;-67
2021/06/05 01:22:52;;;;;;;;;;;24.10;48.00;;;;;;1539525;75;805;-67
2021/06/05 01:25:07;;;;;;;;;;;24.20;47.80;;;;;;1534361;75;1655;-70
2021/06/05 01:27:13;;;;;;;;;;;24.20;47.80;;;;;;1538161;75;747;-67
2021/06/05 01:29:16;;;;;;;;;;;24.20;47.70;;;;;;1547041;75;691;-68
2021/06/05 01:31:19;;;;;;;;;;;24.10;47.60;;;;;;1538031;75;1139;-69
2021/06/05 01:33:22;;;;;;;;;;;24.10;47.30;;;;;;1542642;75;724;-67
2021/06/05 01:35:24;;;;;;;;;;;24.10;47.50;;;;;;1537786;75;743;-67
2021/06/05 01:37:26;;;;;;;;;;;24.20;47.50;;;;;;1534404;75;743;-68
2021/06/05 01:39:32;;;;;;;;;;;24.20;47.50;;;;;;1541190;75;1949;-68
2021/06/05 01:41:34;;;;;;;;;;;24.20;47.40;;;;;;1536596;75;1095;-69
2021/06/05 01:43:36;;;;;;;;;;;24.20;47.10;;;;;;1537318;75;798;-69
2021/06/05 01:45:39;;;;;;;;;;;24.10;47.60;;;;;;1538842;75;723;-68
2021/06/05 01:47:40;;;;;;;;;;;24.10;47.80;;;;;;1539246;75;788;-67
2021/06/05 01:49:43;;;;;;;;;;;24.10;47.40;;;;;;1544147;75;810;-68
2021/06/05 01:51:49;;;;;;;;;;;24.10;47.50;;;;;;1547211;75;1146;-66
2021/06/05 01:53:55;;;;;;;;;;;24.20;47.60;;;;;;1539295;75;797;-68
2021/06/05 01:55:58;;;;;;;;;;;24.10;47.40;;;;;;1532587;75;1182;-68
2021/06/05 01:58:02;;;;;;;;;;;24.10;47.10;;;;;;1532008;75;956;-68
2021/06/05 02:00:11;;;;;;;;;;;24.10;47.00;;;;;;1540071;75;1948;-69
2021/06/05 02:02:13;;;;;;;;;;;24.10;46.80;;;;;;1544111;75;741;-68
2021/06/05 02:04:15;;;;;;;;;;;24.10;46.70;;;;;;1543834;75;802;-67
2021/06/05 02:06:17;;;;;;;;;;;24.10;46.80;;;;;;1539655;75;717;-68
2021/06/05 02:08:21;;;;;;;;;;;24.10;46.90;;;;;;1541956;75;718;-68
2021/06/05 02:10:23;;;;;;;;;;;24.10;46.80;;;;;;1537546;75;1189;-68
2021/06/05 02:12:27;;;;;;;;;;;24.10;46.60;;;;;;1538354;75;797;-68
2021/06/05 02:14:35;;;;;;;;;;;24.10;46.60;;;;;;1542346;75;718;-68
2021/06/05 02:16:40;;;;;;;;;;;24.10;46.60;;;;;;1541445;75;790;-67
2021/06/05 02:18:43;;;;;;;;;;;24.00;46.50;;;;;;1542281;75;806;-69
2021/06/05 02:20:50;;;;;;;;;;;24.10;46.50;;;;;;1543904;75;1935;-67
2021/06/05 02:22:52;;;;;;;;;;;24.00;46.50;;;;;;1536073;75;1819;-69
2021/06/05 02:24:59;;;;;;;;;;;24.10;46.80;;;;;;1536392;75;746;-67
2021/06/05 02:26:58;;;;;;;;;;;24.00;46.50;;;;;;1538089;75;1508;-68
2021/06/05 02:29:01;;;;;;;;;;;24.00;46.60;;;;;;1543735;75;778;-68
2021/06/05 02:31:02;;;;;;;;;;;24.00;46.70;;;;;;1543957;75;1154;-68
2021/06/05 02:33:05;;;;;;;;;;;24.00;46.60;;;;;;1548031;75;722;-68
2021/06/05 02:35:08;;;;;;;;;;;24.00;46.60;;;;;;1508856;77;772;-68
2021/06/05 02:37:11;;;;;;;;;;;24.10;46.70;;;;;;1537745;75;700;-70
2021/06/05 02:39:14;;;;;;;;;;;24.00;46.60;;;;;;1541342;75;964;-67
2021/06/05 02:41:17;;;;;;;;;;;24.10;47.10;;;;;;1535932;75;1940;-67
2021/06/05 02:43:20;;;;;;;;;;;24.00;46.50;;;;;;1544006;75;719;-72
2021/06/05 02:45:23;;;;;;;;;;;24.00;46.50;;;;;;1504263;77;746;-68
2021/06/05 02:47:26;;;;;;;;;;;24.10;47.00;;;;;;1543682;75;691;-69
2021/06/05 02:49:32;;;;;;;;;;;24.00;46.30;;;;;;1536416;75;731;-69
2021/06/05 02:51:35;;;;;;;;;;;24.10;46.40;;;;;;1532483;75;1158;-68
2021/06/05 02:53:37;;;;;;;;;;;24.20;46.80;;;;;;1539985;75;748;-68
2021/06/05 02:55:41;;;;;;;;;;;24.00;46.60;;;;;;1536153;75;754;-69
2021/06/05 02:57:43;;;;;;;;;;;24.00;46.90;;;;;;1537045;75;791;-67
2021/06/05 02:59:44;;;;;;;;;;;24.00;47.00;;;;;;1536552;75;1943;-68
2021/06/05 03:01:46;;;;;;;;;;;24.00;46.80;;;;;;1536513;75;1166;-68
2021/06/05 03:03:48;;;;;;;;;;;24.10;46.90;;;;;;1535610;75;814;-67
2021/06/05 03:05:51;;;;;;;;;;;24.10;46.50;;;;;;1537528;75;751;-66
2021/06/05 03:07:53;;;;;;;;;;;24.00;46.40;;;;;;1543447;75;879;-67
2021/06/05 03:09:55;;;;;;;;;;;24.00;46.30;;;;;;1541873;75;1170;-67
2021/06/05 03:11:56;;;;;;;;;;;24.00;46.30;;;;;;1543492;75;774;-67
2021/06/05 03:13:58;;;;;;;;;;;24.00;46.40;;;;;;1543012;75;727;-69
2021/06/05 03:16:00;;;;;;;;;;;24.00;46.00;;;;;;1547326;75;747;-70
2021/06/05 03:18:02;;;;;;;;;;;24.10;46.20;;;;;;1530257;75;798;-67
2021/06/05 03:20:05;;;;;;;;;;;24.00;46.10;;;;;;1540428;75;1992;-67
2021/06/05 03:22:07;;;;;;;;;;;24.00;46.30;;;;;;1545849;75;792;-68
2021/06/05 03:24:09;;;;;;;;;;;24.00;46.50;;;;;;1541945;75;795;-69
2021/06/05 03:26:11;;;;;;;;;;;24.00;46.80;;;;;;1538398;75;753;-67
2021/06/05 03:28:13;;;;;;;;;;;24.00;46.90;;;;;;1547557;75;835;-72
2021/06/05 03:30:15;;;;;;;;;;;24.00;46.70;;;;;;1539819;75;1147;-69
2021/06/05 03:32:17;;;;;;;;;;;24.10;46.80;;;;;;1544021;75;707;-69
2021/06/05 03:34:19;;;;;;;;;;;24.00;46.60;;;;;;1536149;75;822;-70
2021/06/05 03:36:23;;;;;;;;;;;24.00;46.80;;;;;;1533320;75;811;-67
2021/06/05 03:38:25;;;;;;;;;;;24.00;46.80;;;;;;1543984;75;872;-70
2021/06/05 03:40:28;;;;;;;;;;;24.00;46.80;;;;;;1539083;75;1917;-68
2021/06/05 03:42:30;;;;;;;;;;;24.00;46.60;;;;;;1538475;75;711;-71
2021/06/05 03:44:32;;;;;;;;;;;24.00;46.60;;;;;;1534925;75;782;-68
2021/06/05 03:46:34;;;;;;;;;;;24.10;46.90;;;;;;1543616;75;744;-68
2021/06/05 03:48:37;;;;;;;;;;;24.00;46.80;;;;;;1537106;75;813;-68
2021/06/05 03:50:40;;;;;;;;;;;24.00;46.80;;;;;;1538591;75;1476;-67
2021/06/05 03:52:42;;;;;;;;;;;24.00;46.80;;;;;;1548565;75;881;-67
2021/06/05 03:54:44;;;;;;;;;;;24.10;47.00;;;;;;1533617;75;710;-67
2021/06/05 03:56:46;;;;;;;;;;;24.00;46.80;;;;;;1530931;75;728;-67
2021/06/05 03:58:48;;;;;;;;;;;24.00;46.80;;;;;;1542948;75;711;-68
2021/06/05 04:00:49;;;;;;;;;;;24.10;46.70;;;;;;1544514;75;1941;-68
2021/06/05 04:02:51;;;;;;;;;;;24.10;47.00;;;;;;1535803;75;704;-70
2021/06/05 04:04:53;;;;;;;;;;;24.10;47.00;;;;;;1533371;75;809;-71
2021/06/05 04:06:55;;;;;;;;;;;24.00;46.90;;;;;;1535849;75;710;-68
2021/06/05 04:08:58;;;;;;;;;;;24.00;46.60;;;;;;1543382;75;703;-68
2021/06/05 04:11:00;;;;;;;;;;;24.10;46.90;;;;;;1542682;75;1185;-67
2021/06/05 04:13:02;;;;;;;;;;;24.10;46.70;;;;;;1540287;75;704;-68
2021/06/05 04:15:05;;;;;;;;;;;24.10;47.00;;;;;;1536075;75;744;-70
2021/06/05 04:17:08;;;;;;;;;;;24.10;47.10;;;;;;1536394;75;717;-68
2021/06/05 04:19:11;;;;;;;;;;;24.10;46.60;;;;;;1536537;75;755;-67
2021/06/05 04:21:14;;;;;;;;;;;24.00;46.50;;;;;;1546413;75;1941;-70
2021/06/05 04:23:16;;;;;;;;;;;24.00;46.40;;;;;;1536054;75;1058;-68
2021/06/05 04:25:17;;;;;;;;;;;24.10;46.70;;;;;;1542527;75;777;-67
2021/06/05 04:27:19;;;;;;;;;;;24.10;46.70;;;;;;1540846;75;715;-68
2021/06/05 04:29:21;;;;;;;;;;;24.10;46.50;;;;;;1544353;74;819;-69
2021/06/05 04:31:23;;;;;;;;;;;24.10;46.50;;;;;;1572620;72;2106;-75
2021/06/05 04:33:26;;;;;;;;;;;24.10;46.40;;;;;;1600185;73;768;-75
2021/06/05 04:35:28;;;;;;;;;;;24.00;46.20;;;;;;1599910;73;819;-73
2021/06/05 04:37:29;;;;;;;;;;;24.10;46.60;;;;;;1590095;73;726;-75
2021/06/05 04:39:31;;;;;;;;;;;24.00;46.40;;;;;;1597914;73;855;-76
2021/06/05 04:41:33;;;;;;;;;;;24.00;46.40;;;;;;1575529;73;1962;-77
2021/06/05 04:43:35;;;;;;;;;;;24.00;46.70;;;;;;1569545;75;803;-76
2021/06/05 04:45:37;;;;;;;;;;;24.00;46.30;;;;;;1576934;75;811;-77
2021/06/05 04:47:39;;;;;;;;;;;24.10;46.30;;;;;;1566905;75;690;-77
2021/06/05 04:49:41;;;;;;;;;;;24.10;46.40;;;;;;1574451;75;799;-77
2021/06/05 04:51:43;;;;;;;;;;;24.10;46.30;;;;;;1573051;73;1087;-76
2021/06/05 04:53:44;;;;;;;;;;;24.00;46.20;;;;;;1569970;75;748;-77
2021/06/05 04:55:46;;;;;;;;;;;24.00;46.20;;;;;;1565649;75;723;-76
2021/06/05 04:57:48;;;;;;;;;;;24.00;46.00;;;;;;1563859;75;756;-76
2021/06/05 04:59:50;;;;;;;;;;;24.00;46.70;;;;;;1561873;75;797;-76
2021/06/05 05:01:52;;;;;;;;;;;24.10;46.70;;;;;;1564789;75;1938;-76
2021/06/05 05:03:54;;;;;;;;;;;24.10;46.80;;;;;;1563560;75;746;-75
2021/06/05 05:06:00;;;;;;;;;;;24.10;46.70;;;;;;1567998;75;757;-77
2021/06/05 05:08:02;;;;;;;;;;;24.10;46.80;;;;;;1566128;75;727;-75
2021/06/05 05:10:04;;;;;;;;;;;24.10;47.00;;;;;;1570052;75;725;-76
2021/06/05 05:12:06;;;;;;;;;;;24.00;47.10;;;;;;1564586;75;1088;-74
2021/06/05 05:14:08;;;;;;;;;;;24.10;47.10;;;;;;1567076;75;948;-71
2021/06/05 05:16:10;;;;;;;;;;;24.00;47.30;;;;;;1566010;75;811;-72
2021/06/05 05:18:12;;;;;;;;;;;24.20;47.50;;;;;;1563514;75;810;-72
2021/06/05 05:20:14;;;;;;;;;;;24.10;47.40;;;;;;1570224;74;1167;-74
2021/06/05 05:22:16;;;;;;;;;;;24.10;47.50;;;;;;1565877;75;1942;-73
2021/06/05 05:24:18;;;;;;;;;;;24.20;47.40;;;;;;1562913;75;714;-74
2021/06/05 05:26:20;;;;;;;;;;;24.20;47.50;;;;;;1566519;75;799;-71
2021/06/05 05:28:22;;;;;;;;;;;24.10;47.50;;;;;;1565643;75;728;-74
2021/06/05 05:30:25;;;;;;;;;;;24.20;47.50;;;;;;1566486;75;1141;-74
2021/06/05 05:32:27;;;;;;;;;;;24.10;47.50;;;;;;1570549;75;720;-74
2021/06/05 05:34:29;;;;;;;;;;;24.10;47.80;;;;;;1563449;75;651;-75
2021/06/05 05:36:32;;;;;;;;;;;24.10;47.60;;;;;;1566697;75;740;-74
2021/06/05 05:38:37;;;;;;;;;;;24.10;47.70;;;;;;1566690;75;713;-74
2021/06/05 05:40:38;;;;;;;;;;;24.20;47.80;;;;;;1569163;75;1665;-75
2021/06/05 05:42:40;;;;;;;;;;;24.10;47.70;;;;;;1566480;75;771;-74
2021/06/05 05:44:42;;;;;;;;;;;24.10;47.70;;;;;;1566392;75;742;-74
2021/06/05 05:46:44;;;;;;;;;;;24.20;47.70;;;;;;1573571;75;739;-76
2021/06/05 05:48:46;;;;;;;;;;;24.10;47.70;;;;;;1571938;75;737;-76
2021/06/05 05:50:47;;;;;;;;;;;24.10;47.60;;;;;;1566297;75;1174;-75
2021/06/05 05:52:49;;;;;;;;;;;24.10;47.60;;;;;;1565730;75;901;-75
2021/06/05 05:54:51;;;;;;;;;;;24.10;47.70;;;;;;1568738;75;898;-76
2021/06/05 05:56:53;;;;;;;;;;;24.10;47.80;;;;;;1570102;75;891;-74
2021/06/05 05:58:55;;;;;;;;;;;24.10;47.80;;;;;;1568475;75;766;-75
2021/06/05 06:00:57;;;;;;;;;;;24.20;47.70;;;;;;1566848;75;1939;-75
2021/06/05 06:02:59;;;;;;;;;;;24.10;47.80;;;;;;1572623;75;715;-75
2021/06/05 06:05:01;;;;;;;;;;;24.10;47.80;;;;;;1571495;75;718;-74
2021/06/05 06:07:03;;;;;;;;;;;24.10;47.80;;;;;;1574527;75;701;-75
2021/06/05 06:09:05;;;;;;;;;;;24.10;47.80;;;;;;1571034;75;747;-76
2021/06/05 06:11:09;;;;;;;;;;;24.10;47.60;;;;;;1574481;73;1134;-72
2021/06/05 06:13:11;;;;;;;;;;;24.10;47.90;;;;;;1561487;75;756;-74
2021/06/05 06:15:13;;;;;;;;;;;24.10;47.90;;;;;;1569846;75;771;-72
2021/06/05 06:17:15;;;;;;;;;;;24.20;47.80;;;;;;1563981;75;729;-72
2021/06/05 06:19:17;;;;;;;;;;;24.20;47.70;;;;;;1559551;75;714;-71
2021/06/05 06:21:19;;;;;;;;;;;24.10;47.30;;;;;;1560798;74;1971;-71
2021/06/05 06:23:25;;;;;;;;;;;24.20;47.20;;;;;;1557533;75;743;-71
2021/06/05 06:25:29;;;;;;;;;;;24.20;47.20;;;;;;1561142;75;773;-72
2021/06/05 06:27:32;;;;;;;;;;;24.20;47.50;;;;;;1566830;75;866;-72
2021/06/05 06:29:35;;;;;;;;;;;24.20;47.60;;;;;;1573934;75;896;-73
2021/06/05 06:31:36;;;;;;;;;;;24.20;47.60;;;;;;1564221;75;1128;-73
2021/06/05 06:33:38;;;;;;;;;;;24.20;47.60;;;;;;1564136;75;765;-74
2021/06/05 06:35:40;;;;;;;;;;;24.20;47.80;;;;;;1562259;75;799;-71
2021/06/05 06:37:42;;;;;;;;;;;24.20;48.10;;;;;;1563585;75;764;-74
2021/06/05 06:39:44;;;;;;;;;;;24.10;48.40;;;;;;1565296;75;806;-75
2021/06/05 06:41:46;;;;;;;;;;;24.00;48.20;;;;;;1565504;75;1963;-75
2021/06/05 06:43:48;;;;;;;;;;;24.00;48.10;;;;;;1550761;75;806;-73
2021/06/05 06:45:50;;;;;;;;;;;24.10;48.20;;;;;;1566737;75;929;-74
2021/06/05 06:47:51;;;;;;;;;;;24.20;48.30;;;;;;1574077;75;796;-74
2021/06/05 06:49:53;;;;;;;;;;;24.20;48.00;;;;;;1560032;75;786;-75
2021/06/05 06:51:55;;;;;;;;;;;24.20;47.60;;;;;;1567777;75;1163;-73
2021/06/05 06:53:57;;;;;;;;;;;24.20;47.60;;;;;;1569619;75;703;-73
2021/06/05 06:55:59;;;;;;;;;;;24.20;47.00;;;;;;1564020;75;786;-73
2021/06/05 06:58:01;;;;;;;;;;;24.20;47.30;;;;;;1558451;75;753;-73
2021/06/05 07:00:04;;;;;;;;;;;24.20;46.80;;;;;;1567936;75;795;-73
2021/06/05 07:02:06;;;;;;;;;;;24.10;46.80;;;;;;1560076;74;1948;-71
2021/06/05 07:04:10;;;;;;;;;;;24.10;47.00;;;;;;1561505;75;839;-74
2021/06/05 07:06:12;;;;;;;;;;;24.00;47.10;;;;;;1564969;75;727;-73
2021/06/05 07:08:18;;;;;;;;;;;24.10;47.40;;;;;;1558802;75;801;-73
2021/06/05 07:10:21;;;;;;;;;;;24.00;47.10;;;;;;1561897;75;1156;-73
2021/06/05 07:12:23;;;;;;;;;;;24.00;47.10;;;;;;1564544;75;722;-74
2021/06/05 07:14:25;;;;;;;;;;;24.00;46.90;;;;;;1561007;75;776;-74
2021/06/05 07:16:27;;;;;;;;;;;24.00;46.80;;;;;;1555694;75;747;-70
2021/06/05 07:18:29;;;;;;;;;;;23.90;47.20;;;;;;1562469;75;783;-71
2021/06/05 07:20:31;;;;;;;;;;;24.00;47.50;;;;;;1567593;74;1135;-72
2021/06/05 07:22:33;;;;;;;;;;;24.00;47.40;;;;;;1562495;75;1942;-72
2021/06/05 07:24:35;;;;;;;;;;;24.10;47.20;;;;;;1548739;75;777;-71
2021/06/05 07:26:37;;;;;;;;;;;24.20;47.30;;;;;;1568780;75;779;-71
2021/06/05 07:28:44;;;;;;;;;;;24.10;47.40;;;;;;1562114;75;868;-72
2021/06/05 07:30:45;;;;;;;;;;;24.20;46.80;;;;;;1561438;74;1204;-72
2021/06/05 07:32:47;;;;;;;;;;;24.20;46.90;;;;;;1564689;75;787;-75
2021/06/05 07:34:49;;;;;;;;;;;24.30;46.80;;;;;;1565932;75;739;-72
2021/06/05 07:36:52;;;;;;;;;;;24.20;45.80;;;;;;1558494;75;706;-72
2021/06/05 07:38:54;;;;;;;;;;;24.30;46.40;;;;;;1563574;75;816;-74
2021/06/05 07:40:56;;;;;;;;;;;24.30;46.70;;;;;;1568351;74;1113;-72
2021/06/05 07:42:58;;;;;;;;;;;24.30;46.90;;;;;;1557011;75;1946;-74
2021/06/05 07:45:00;;;;;;;;;;;24.30;46.80;;;;;;1552459;75;846;-73
2021/06/05 07:47:02;;;;;;;;;;;24.40;46.50;;;;;;1568650;75;655;-73
2021/06/05 07:49:04;;;;;;;;;;;24.40;46.40;;;;;;1557390;75;776;-73
2021/06/05 07:51:06;;;;;;;;;;;24.40;46.40;;;;;;1558171;74;1182;-76
2021/06/05 07:53:08;;;;;;;;;;;24.40;46.50;;;;;;1570378;75;679;-75
2021/06/05 07:55:10;;;;;;;;;;;24.30;46.10;;;;;;1571974;75;665;-75
2021/06/05 07:57:12;;;;;;;;;;;24.30;46.80;;;;;;1561118;75;853;-75
2021/06/05 07:59:14;;;;;;;;;;;24.30;46.70;;;;;;1544955;75;753;-72
2021/06/05 08:01:15;;;;;;;;;;;24.20;46.80;;;;;;1569527;74;1138;-71
2021/06/05 08:03:17;;;;;;;;;;;24.30;46.80;;;;;;1571314;75;1949;-72
2021/06/05 08:05:19;;;;;;;;;;;24.20;47.40;;;;;;1576483;75;808;-71
2021/06/05 08:07:21;;;;;;;;;;;24.30;48.30;;;;;;1576260;75;777;-71
2021/06/05 08:09:23;;;;;;;;;;;24.30;47.60;;;;;;1574060;75;791;-69
2021/06/05 08:11:25;;;;;;;;;;;24.30;47.20;;;;;;1575879;73;1122;-71
2021/06/05 08:13:27;;;;;;;;;;;24.30;47.30;;;;;;1567565;75;896;-72
2021/06/05 08:15:30;;;;;;;;;;;24.30;47.00;;;;;;1569069;75;741;-72
2021/06/05 08:17:32;;;;;;;;;;;24.30;47.30;;;;;;1572195;75;831;-71
2021/06/05 08:19:37;;;;;;;;;;;24.50;46.90;;;;;;1553158;75;830;-69
2021/06/05 08:21:38;;;;;;;;;;;24.30;45.70;;;;;;1558382;74;1707;-70
2021/06/05 08:23:40;;;;;;;;;;;24.20;46.00;;;;;;1563043;75;673;-71
2021/06/05 08:25:42;;;;;;;;;;;24.30;46.40;;;;;;1566800;75;630;-71
2021/06/05 08:27:44;;;;;;;;;;;24.30;46.20;;;;;;1560880;75;629;-71
2021/06/05 08:29:45;;;;;;;;;;;24.30;46.40;;;;;;1567894;75;777;-72
2021/06/05 08:31:49;;;;;;;;;;;24.20;46.30;;;;;;1560839;75;1166;-68
2021/06/05 08:33:51;;;;;;;;;;;24.30;46.30;;;;;;1557131;75;824;-70
2021/06/05 08:35:53;;;;;;;;;;;24.20;46.70;;;;;;1564431;75;741;-71
2021/06/05 08:37:55;;;;;;;;;;;24.20;46.70;;;;;;1567993;75;769;-70
2021/06/05 08:39:57;;;;;;;;;;;24.20;46.90;;;;;;1567904;75;891;-70
2021/06/05 08:42:00;;;;;;;;;;;24.30;47.10;;;;;;1564306;75;1933;-71
2021/06/05 08:44:04;;;;;;;;;;;24.20;46.50;;;;;;1563554;75;756;-71
2021/06/05 08:46:07;;;;;;;;;;;24.30;46.60;;;;;;1563958;75;823;-71
2021/06/05 08:48:10;;;;;;;;;;;24.30;46.50;;;;;;1566182;75;689;-72
2021/06/05 08:50:14;;;;;;;;;;;24.30;46.50;;;;;;1568019;74;2005;-73
2021/06/05 08:52:25;;;;;;;;;;;24.30;46.90;;;;;;1573858;75;923;-69
2021/06/05 08:54:31;;;;;;;;;;;24.20;46.90;;;;;;1557743;75;1478;-70
2021/06/05 08:56:33;;;;;;;;;;;24.20;47.20;;;;;;1576429;75;1972;-71
2021/06/05 08:58:41;;;;;;;;;;;24.10;47.80;;;;;;1576126;75;779;-71
2021/06/05 09:00:44;;;;;;;;;;;24.10;47.70;;;;;;1571965;75;1101;-75
2021/06/05 09:02:47;;;;;;;;;;;24.10;48.10;;;;;;1568699;75;1939;-75
2021/06/05 09:04:49;;;;;;;;;;;24.10;47.80;;;;;;1562661;75;787;-73
2021/06/05 09:06:57;;;;;;;;;;;24.20;48.10;;;;;;1561136;75;727;-73
2021/06/05 09:09:01;;;;;;;;;;;24.10;47.40;;;;;;1573941;75;716;-73
2021/06/05 09:11:04;;;;;;;;;;;24.20;47.20;;;;;;1563063;73;1154;-73
2021/06/05 09:13:06;;;;;;;;;;;24.20;46.80;;;;;;1560129;75;742;-73
2021/06/05 09:15:08;;;;;;;;;;;24.30;46.50;;;;;;1579216;75;809;-73
2021/06/05 09:17:14;;;;;;;;;;;24.30;46.70;;;;;;1566127;75;795;-74
2021/06/05 09:19:26;;;;;;;;;;;24.30;45.80;;;;;;1559613;75;747;-73
2021/06/05 09:21:32;;;;;;;;;;;24.20;45.70;;;;;;1574040;75;1638;-74
2021/06/05 09:23:35;;;;;;;;;;;24.30;45.80;;;;;;1569662;75;1933;-72
2021/06/05 09:25:38;;;;;;;;;;;24.20;45.90;;;;;;1572063;75;941;-74
2021/06/05 09:27:41;;;;;;;;;;;24.30;46.10;;;;;;1574348;75;767;-74
2021/06/05 09:29:56;;;;;;;;;;;24.30;46.20;;;;;;1572704;75;787;-75
2021/06/05 09:32:12;;;;;;;;;;;24.20;45.90;;;;;;1571136;74;1092;-73
2021/06/05 09:34:14;;;;;;;;;;;24.30;46.00;;;;;;1569564;75;812;-74
2021/06/05 09:36:20;;;;;;;;;;;24.30;46.00;;;;;;1552211;75;722;-75
2021/06/05 09:38:33;;;;;;;;;;;24.20;46.00;;;;;;1567389;75;727;-75
2021/06/05 09:40:35;;;;;;;;;;;24.20;46.10;;;;;;1574423;75;1179;-74
2021/06/05 09:42:42;;;;;;;;;;;24.20;46.10;;;;;;1547890;76;1939;-74
2021/06/05 09:44:45;;;;;;;;;;;24.30;46.20;;;;;;1563730;75;758;-73
2021/06/05 09:47:00;;;;;;;;;;;24.20;46.10;;;;;;1565567;75;957;-73
2021/06/05 09:49:15;;;;;;;;;;;24.30;46.30;;;;;;1572203;75;785;-75
2021/06/05 09:51:25;;;;;;;;;;;24.30;46.30;;;;;;1570073;75;1139;-75
2021/06/05 09:53:31;;;;;;;;;;;24.30;46.50;;;;;;1569240;75;769;-76
2021/06/05 09:55:33;;;;;;;;;;;24.30;46.50;;;;;;1567042;75;739;-75
2021/06/05 09:57:36;;;;;;;;;;;24.30;46.50;;;;;;1565376;75;795;-74
2021/06/05 09:59:38;;;;;;;;;;;24.40;46.40;;;;;;1570868;75;766;-75
2021/06/05 10:01:40;;;;;;;;;;;24.30;46.30;;;;;;1561580;75;1163;-73
2021/06/05 10:03:42;;;;;;;;;;;24.40;46.40;;;;;;1560864;75;1961;-74
2021/06/05 10:05:44;;;;;;;;;;;24.30;46.90;;;;;;1553615;75;701;-74
2021/06/05 10:07:46;;;;;;;;;;;24.30;46.60;;;;;;1555516;75;713;-74
2021/06/05 10:09:48;;;;;;;;;;;24.30;46.70;;;;;;1563333;75;744;-75
2021/06/05 10:11:50;;;;;;;;;;;24.30;47.50;;;;;;1573078;74;1111;-73
2021/06/05 10:13:59;;;;;;;;;;;24.40;48.80;;;;;;1558400;75;829;-70
2021/06/05 10:16:03;;;;;;;;;;;24.30;47.90;;;;;;1560025;75;683;-73
2021/06/05 10:18:06;;;;;;;;;;;24.30;48.70;;;;;;1552374;75;1214;-71
2021/06/05 10:20:10;;;;;;;;;;;24.30;48.80;;;;;;1564598;75;678;-74
2021/06/05 10:22:12;;;;;;;;;;;24.30;48.10;;;;;;1547307;75;1177;-73
2021/06/05 10:24:15;;;;;;;;;;;24.30;48.00;;;;;;1568108;75;1940;-73
2021/06/05 10:26:22;;;;;;;;;;;24.40;48.00;;;;;;1579905;75;752;-73
2021/06/05 10:28:25;;;;;;;;;;;24.40;48.10;;;;;;1570500;75;769;-72
2021/06/05 10:30:46;;;;;;;;;;;24.30;48.10;;;;;;1576509;74;1870;-66
2021/06/05 10:32:48;;;;;;;;;;;24.30;48.10;;;;;;1559665;74;610;-68
2021/06/05 10:34:56;;;;;;;;;;;24.30;48.90;;;;;;1564931;74;732;-68
2021/06/05 10:36:58;;;;;;;;;;;24.30;48.70;;;;;;1543887;75;1150;-72
2021/06/05 10:39:07;;;;;;;;;;;24.40;48.60;;;;;;1564273;74;894;-69
2021/06/05 10:41:11;;;;;;;;;;;24.40;48.50;;;;;;1563181;74;1201;-69
2021/06/05 10:43:15;;;;;;;;;;;24.40;48.80;;;;;;1564948;74;1918;-67
2021/06/05 10:45:18;;;;;;;;;;;24.30;49.00;;;;;;1550845;74;1792;-67
2021/06/05 10:47:26;;;;;;;;;;;24.30;48.80;;;;;;1560530;74;1156;-69
2021/06/05 10:49:34;;;;;;;;;;;24.30;48.70;;;;;;1552166;74;778;-68
2021/06/05 10:51:36;;;;;;;;;;;24.40;48.10;;;;;;1559856;74;1185;-71
2021/06/05 10:53:40;;;;;;;;;;;24.30;48.50;;;;;;1573739;74;784;-68
2021/06/05 10:55:46;;;;;;;;;;;24.30;48.30;;;;;;1570043;74;920;-69
2021/06/05 10:57:49;;;;;;;;;;;24.30;48.40;;;;;;1561905;74;814;-71
2021/06/05 10:59:52;;;;;;;;;;;24.40;48.10;;;;;;1567822;74;809;-68
2021/06/05 11:01:53;;;;;;;;;;;24.40;48.00;;;;;;1565771;74;1146;-69
2021/06/05 11:03:59;;;;;;;;;;;24.30;47.90;;;;;;1567585;74;1928;-70
2021/06/05 11:06:03;;;;;;;;;;;24.40;47.80;;;;;;1567821;74;771;-71
2021/06/05 11:08:17;;;;;;;;;;;24.40;47.80;;;;;;1571966;74;1571;-68
2021/06/05 11:10:18;;;;;;;;;;;24.40;47.80;;;;;;1575548;74;1265;-68
2021/06/05 11:12:23;;;;;;;;;;;24.30;47.70;;;;;;1550256;76;1140;-72
2021/06/05 11:14:26;;;;;;;;;;;24.40;47.60;;;;;;1561660;74;1160;-68
2021/06/05 11:16:46;;;;;;;;;;;24.40;47.60;;;;;;1565053;74;670;-68
2021/06/05 11:18:56;;;;;;;;;;;24.40;47.50;;;;;;1562295;74;822;-67
2021/06/05 11:20:58;;;;;;;;;;;24.30;47.70;;;;;;1568092;74;1154;-66
2021/06/05 11:23:02;;;;;;;;;;;24.30;47.90;;;;;;1562740;74;1943;-70
2021/06/05 11:25:08;;;;;;;;;;;24.20;47.40;;;;;;1571352;74;703;-68
2021/06/05 11:27:11;;;;;;;;;;;24.20;46.20;;;;;;1570526;74;690;-66
2021/06/05 11:29:21;;;;;;;;;;;24.10;45.80;;;;;;1568880;74;1004;-65
2021/06/05 11:31:42;;;;;;;;;;;24.00;46.50;;;;;;1562121;74;1196;-69
2021/06/05 11:33:44;;;;;;;;;;;24.10;47.30;;;;;;1566346;74;767;-65
2021/06/05 11:35:52;;;;;;;;;;;24.00;47.60;;;;;;1552852;74;933;-66
2021/06/05 11:37:53;;;;;;;;;;;24.00;47.60;;;;;;1566894;74;1407;-67
2021/06/05 11:40:00;;;;;;;;;;;24.10;48.20;;;;;;1563835;74;819;-68
2021/06/05 11:42:07;;;;;;;;;;;24.20;48.00;;;;;;1567228;74;1226;-69
2021/06/05 11:44:16;;;;;;;;;;;24.10;48.00;;;;;;1562961;74;1938;-66
2021/06/05 11:46:20;;;;;;;;;;;24.10;47.80;;;;;;1568548;74;1967;-67
2021/06/05 11:48:40;;;;;;;;;;;24.10;47.60;;;;;;1557867;74;718;-68
2021/06/05 11:50:44;;;;;;;;;;;24.10;47.80;;;;;;1567829;74;1128;-67
2021/06/05 11:52:52;;;;;;;;;;;24.10;47.10;;;;;;1567778;74;1720;-66
2021/06/05 11:55:08;;;;;;;;;;;24.10;47.20;;;;;;1561480;74;766;-69
2021/06/05 11:57:15;;;;;;;;;;;24.10;47.10;;;;;;1566763;74;742;-70
2021/06/05 11:59:19;;;;;;;;;;;24.10;47.80;;;;;;1567460;74;748;-68
2021/06/05 12:01:25;;;;;;;;;;;24.10;47.80;;;;;;1568525;74;1160;-68
2021/06/05 12:03:28;;;;;;;;;;;24.10;47.70;;;;;;1565424;74;1944;-71
2021/06/05 12:05:38;;;;;;;;;;;24.20;47.70;;;;;;1563943;74;1914;-67
2021/06/05 12:07:41;;;;;;;;;;;24.10;47.60;;;;;;1567812;74;781;-70
2021/06/05 12:09:43;;;;;;;;;;;24.20;47.60;;;;;;1566567;74;760;-71
2021/06/05 12:11:46;;;;;;;;;;;24.10;47.60;;;;;;1567974;74;1130;-68
2021/06/05 12:13:48;;;;;;;;;;;24.20;47.50;;;;;;1567959;74;765;-69
2021/06/05 12:15:50;;;;;;;;;;;24.10;47.60;;;;;;1571214;74;921;-69